Bajura Airport


Codes: VNBR/BJU
Name: Bajura Airport
City: Bajura
Country: Nepal
Elevation: 4300 ft.

Photos at Bajura Airport


   Photos courtesy of SpottingLog. You can add your own sightings and photos by signing up for a free trial today.



No photos found.

Weather at Bajura Airport


Time (UTC)DescriptionTempratureWindCloud coverageVisibilityPressureHumidity
16-Jun-2024 03:00Clear Sky16°C2 mph, SE0%10000m1013hPa43%
16-Jun-2024 06:00Clear Sky23°C7 mph, SW1%10000m1008hPa29%
16-Jun-2024 09:00Scattered Clouds30°C11 mph, SW28%10000m1002hPa17%
16-Jun-2024 12:00Broken Clouds26°C9 mph, SW63%10000m1004hPa24%
16-Jun-2024 15:00Few Clouds17°C4 mph, W14%10000m1010hPa44%
16-Jun-2024 18:00Few Clouds16°C2 mph, N21%10000m1011hPa47%
16-Jun-2024 21:00Broken Clouds16°C4 mph, NE52%10000m1010hPa47%
17-Jun-2024 00:00Broken Clouds17°C4 mph, NE80%10000m1011hPa46%
17-Jun-2024 03:00Scattered Clouds26°C2 mph, S49%10000m1008hPa27%
17-Jun-2024 06:00Scattered Clouds30°C7 mph, SW46%10000m1004hPa19%
17-Jun-2024 09:00Overcast Clouds30°C9 mph, SW89%10000m1003hPa20%
17-Jun-2024 12:00Broken Clouds28°C9 mph, SW80%10000m1003hPa27%
17-Jun-2024 15:00Scattered Clouds19°C2 mph, W35%10000m1008hPa52%
17-Jun-2024 18:00Scattered Clouds18°C2 mph, NE47%10000m1009hPa56%
17-Jun-2024 21:00Overcast Clouds18°C2 mph, NE85%10000m1008hPa56%
18-Jun-2024 00:00Broken Clouds17°C2 mph, NE84%10000m1008hPa59%
18-Jun-2024 03:00Scattered Clouds26°C4 mph, SW29%10000m1005hPa34%
18-Jun-2024 06:00Scattered Clouds28°C9 mph, SW45%10000m1003hPa26%
18-Jun-2024 09:00Overcast Clouds27°C7 mph, SW97%10000m1003hPa31%
18-Jun-2024 12:00Broken Clouds26°C11 mph, SW77%10000m1002hPa35%
18-Jun-2024 15:00Scattered Clouds19°C2 mph, W42%10000m1006hPa58%
18-Jun-2024 18:00Broken Clouds20°C2 mph, NE62%10000m1006hPa51%
18-Jun-2024 21:00Broken Clouds17°C2 mph, N63%10000m1006hPa62%
19-Jun-2024 00:00Broken Clouds16°C4 mph, NE52%10000m1006hPa65%
19-Jun-2024 03:00Broken Clouds26°C2 mph, SW58%10000m1004hPa36%
19-Jun-2024 06:00Broken Clouds26°C7 mph, SW73%10000m1001hPa32%
19-Jun-2024 09:00Light Rain21°C4 mph, W94%10000m1003hPa56%
19-Jun-2024 12:00Light Rain20°C7 mph, SW83%10000m1004hPa67%
19-Jun-2024 15:00Light Rain15°C2 mph, NE69%10000m1007hPa86%
19-Jun-2024 18:00Light Rain16°C2 mph, N54%10000m1007hPa79%
19-Jun-2024 21:00Light Rain14°C4 mph, NE95%10000m1007hPa87%
20-Jun-2024 00:00Light Rain14°C2 mph, N81%10000m1007hPa82%
20-Jun-2024 03:00Few Clouds23°C2 mph, S20%10000m1005hPa48%
20-Jun-2024 06:00Scattered Clouds28°C7 mph, SW29%10000m1001hPa28%
20-Jun-2024 09:00Overcast Clouds26°C7 mph, SW98%10000m1001hPa35%
20-Jun-2024 12:00Light Rain23°C7 mph, W91%10000m1002hPa50%
20-Jun-2024 15:00Light Rain17°C0 mph, E100%10000m1007hPa80%
20-Jun-2024 18:00Light Rain17°C2 mph, NE100%10000m1008hPa80%
20-Jun-2024 21:00Light Rain14°C4 mph, N10%10000m1008hPa84%
21-Jun-2024 00:00Few Clouds14°C2 mph, N19%10000m1008hPa81%